createdAt,value
2019-02-17T00:01:04.472Z,11.23
2019-02-17T00:03:32.449Z,10.27
2019-02-17T00:06:01.646Z,10.20
2019-02-17T00:08:30.726Z,9.47
2019-02-17T00:10:58.756Z,10.30
2019-02-17T00:13:26.714Z,10.13
2019-02-17T00:15:57.668Z,10.77
2019-02-17T00:18:27.816Z,10.20
2019-02-17T00:20:55.820Z,9.53
2019-02-17T00:23:23.778Z,10.17
2019-02-17T00:25:51.716Z,9.47
2019-02-17T00:28:19.672Z,10.03
2019-02-17T00:30:47.742Z,9.67
2019-02-17T00:33:17.243Z,9.57
2019-02-17T00:35:48.041Z,8.97
2019-02-17T00:38:16.326Z,10.20
2019-02-17T00:40:45.552Z,9.60
2019-02-17T00:43:13.723Z,9.30
2019-02-17T00:45:41.723Z,9.50
2019-02-17T00:48:09.786Z,8.93
2019-02-17T00:50:37.877Z,8.80
2019-02-17T00:53:05.824Z,8.80
2019-02-17T00:55:34.931Z,9.07
2019-02-17T00:58:07.824Z,8.70
2019-02-17T01:00:39.195Z,7.93
2019-02-17T01:03:07.236Z,8.53
2019-02-17T01:05:35.240Z,8.83
2019-02-17T01:08:03.319Z,8.87
2019-02-17T01:10:31.373Z,8.87
2019-02-17T01:13:04.852Z,8.20
2019-02-17T01:15:33.088Z,8.50
2019-02-17T01:18:01.015Z,8.67
2019-02-17T01:20:29.051Z,8.50
2019-02-17T01:22:57.036Z,8.50
2019-02-17T01:25:25.069Z,8.37
2019-02-17T01:27:53.068Z,7.97
2019-02-17T01:30:21.105Z,8.20
2019-02-17T01:32:49.080Z,8.77
2019-02-17T01:35:17.095Z,7.77
2019-02-17T01:37:45.051Z,7.97
2019-02-17T01:40:13.223Z,7.70
2019-02-17T01:42:41.164Z,7.10
2019-02-17T01:45:09.216Z,7.73
2019-02-17T01:47:37.320Z,7.27
2019-02-17T01:50:05.702Z,7.00
2019-02-17T01:52:33.779Z,7.10
2019-02-17T01:55:01.802Z,7.20
2019-02-17T01:57:29.823Z,7.03
2019-02-17T01:59:57.920Z,6.63
2019-02-17T02:02:27.090Z,6.67
2019-02-17T02:04:55.096Z,6.50
2019-02-17T02:07:23.186Z,6.03
2019-02-17T02:09:51.563Z,5.67
2019-02-17T02:12:21.222Z,5.80
2019-02-17T02:14:49.220Z,6.03
2019-02-17T02:17:17.265Z,5.40
2019-02-17T02:19:45.465Z,6.00
2019-02-17T02:22:13.518Z,5.60
2019-02-17T02:24:41.471Z,5.80
2019-02-17T02:27:09.475Z,5.60
2019-02-17T02:29:41.138Z,4.97
2019-02-17T02:32:09.669Z,5.23
2019-02-17T02:34:37.664Z,5.50
2019-02-17T02:37:05.687Z,5.57
2019-02-17T02:39:33.788Z,5.43
2019-02-17T02:42:01.865Z,5.47
2019-02-17T02:44:31.096Z,5.50
2019-02-17T02:46:59.165Z,4.83
2019-02-17T02:49:27.199Z,5.57
2019-02-17T02:51:55.205Z,5.63
2019-02-17T02:54:23.219Z,5.50
2019-02-17T02:56:51.222Z,4.80
2019-02-17T02:59:19.227Z,5.17
2019-02-17T03:01:47.172Z,5.07
2019-02-17T03:04:15.175Z,5.13
2019-02-17T03:06:47.489Z,4.67
2019-02-17T03:09:15.496Z,4.77
2019-02-17T03:11:43.511Z,4.70
2019-02-17T03:14:11.589Z,4.63
2019-02-17T03:16:39.629Z,4.80
2019-02-17T03:19:10.451Z,4.53
2019-02-17T03:21:40.470Z,4.73
2019-02-17T03:24:08.483Z,4.80
2019-02-17T03:26:36.461Z,4.50
2019-02-17T03:29:04.356Z,4.90
2019-02-17T03:31:32.391Z,4.27
2019-02-17T03:34:00.462Z,4.00
2019-02-17T03:36:28.609Z,4.63
2019-02-17T03:38:56.581Z,3.97
2019-02-17T03:41:24.651Z,3.70
2019-02-17T03:43:52.761Z,3.70
2019-02-17T03:46:20.720Z,4.03
2019-02-17T03:48:51.106Z,3.87
2019-02-17T03:51:19.106Z,4.17
2019-02-17T03:53:47.089Z,4.73
2019-02-17T03:56:17.736Z,4.50
2019-02-17T03:58:48.955Z,4.13
2019-02-17T04:01:16.912Z,4.70
2019-02-17T04:03:44.924Z,5.03
2019-02-17T04:06:12.949Z,3.90
2019-02-17T04:08:40.949Z,4.37
2019-02-17T04:11:10.771Z,4.97
2019-02-17T04:13:38.780Z,4.07
2019-02-17T04:16:06.735Z,3.63
2019-02-17T04:18:35.261Z,3.50
2019-02-17T04:21:04.288Z,3.57
2019-02-17T04:23:32.285Z,3.23
2019-02-17T04:26:00.227Z,3.37
2019-02-17T04:28:28.263Z,3.87
2019-02-17T04:30:56.300Z,3.33
2019-02-17T04:33:24.301Z,3.00
2019-02-17T04:35:54.864Z,3.00
2019-02-17T04:38:22.962Z,3.10
2019-02-17T04:40:50.915Z,3.30
2019-02-17T04:43:18.907Z,2.60
2019-02-17T04:45:46.853Z,3.00
2019-02-17T04:48:14.820Z,2.93
2019-02-17T04:50:42.744Z,2.83
2019-02-17T04:53:10.803Z,2.73
2019-02-17T04:55:38.723Z,3.07
2019-02-17T04:58:06.739Z,2.63
2019-02-17T05:00:40.106Z,2.90
2019-02-17T05:03:04.366Z,3.03
2019-02-17T05:05:32.564Z,2.73
2019-02-17T05:08:00.508Z,3.70
2019-02-17T05:10:28.706Z,3.30
2019-02-17T05:12:56.656Z,2.90
2019-02-17T05:15:24.629Z,2.70
2019-02-17T05:17:52.610Z,2.87
2019-02-17T05:20:20.615Z,3.17
2019-02-17T05:22:48.602Z,3.23
2019-02-17T05:25:16.618Z,3.73
2019-02-17T05:27:44.691Z,2.93
2019-02-17T05:30:12.744Z,2.93
2019-02-17T05:32:43.233Z,2.67
2019-02-17T05:35:11.297Z,2.60
2019-02-17T05:37:39.346Z,2.80
2019-02-17T05:40:07.366Z,2.60
2019-02-17T05:42:35.445Z,2.70
2019-02-17T05:45:03.479Z,2.60
2019-02-17T05:47:34.052Z,2.53
2019-02-17T05:50:02.036Z,2.67
2019-02-17T05:52:30.064Z,2.33
2019-02-17T05:54:58.073Z,2.10
2019-02-17T05:57:26.080Z,2.50
2019-02-17T05:59:54.028Z,2.00
2019-02-17T06:02:21.975Z,1.97
2019-02-17T06:04:50.023Z,1.70
2019-02-17T06:07:17.972Z,2.00
2019-02-17T06:09:46.106Z,1.80
2019-02-17T06:12:14.104Z,1.67
2019-02-17T06:14:42.146Z,2.17
2019-02-17T06:17:10.120Z,1.87
2019-02-17T06:19:38.191Z,1.80
2019-02-17T06:22:06.272Z,2.10
2019-02-17T06:24:34.336Z,1.87
2019-02-17T06:27:02.374Z,2.10
2019-02-17T06:29:30.366Z,1.80
2019-02-17T06:31:58.477Z,1.63
2019-02-17T06:34:26.514Z,1.60
2019-02-17T06:36:54.584Z,1.97
2019-02-17T06:39:22.691Z,1.80
2019-02-17T06:41:50.655Z,2.00
2019-02-17T06:44:18.695Z,2.03
2019-02-17T06:46:50.293Z,1.90
2019-02-17T06:49:18.265Z,1.70
2019-02-17T06:51:46.729Z,1.43
2019-02-17T06:54:14.996Z,1.63
2019-02-17T06:56:51.214Z,1.60
2019-02-17T06:59:23.124Z,2.00
2019-02-17T07:01:51.200Z,1.70
2019-02-17T07:04:22.585Z,2.10
2019-02-17T07:06:55.680Z,1.67
2019-02-17T07:09:23.708Z,1.77
2019-02-17T07:11:51.715Z,1.63
2019-02-17T07:14:20.891Z,1.60
2019-02-17T07:16:51.912Z,1.80
2019-02-17T07:19:19.933Z,1.53
2019-02-17T07:21:47.887Z,1.73
2019-02-17T07:24:15.829Z,1.67
2019-02-17T07:26:46.901Z,1.40
2019-02-17T07:29:16.745Z,1.47
2019-02-17T07:31:44.816Z,1.57
2019-02-17T07:34:12.855Z,1.60
2019-02-17T07:36:40.992Z,1.60
2019-02-17T07:39:09.096Z,1.93
2019-02-17T07:41:37.115Z,1.30
2019-02-17T07:44:06.813Z,1.33
2019-02-17T07:46:34.815Z,1.37
2019-02-17T07:49:02.827Z,1.33
2019-02-17T07:51:30.805Z,1.27
2019-02-17T07:53:58.753Z,1.40
2019-02-17T07:56:26.785Z,1.73
2019-02-17T07:58:54.759Z,1.50
2019-02-17T08:01:22.784Z,1.43
2019-02-17T08:03:50.767Z,1.37
2019-02-17T08:06:18.718Z,1.60
2019-02-17T08:08:46.718Z,1.47
2019-02-17T08:11:14.703Z,1.37
2019-02-17T08:13:42.656Z,1.20
2019-02-17T08:16:10.757Z,1.53
2019-02-17T08:18:38.828Z,1.30
2019-02-17T08:21:06.784Z,1.40
2019-02-17T08:23:34.740Z,1.13
2019-02-17T08:26:02.695Z,1.10
2019-02-17T08:28:30.639Z,1.20
2019-02-17T08:30:58.615Z,1.30
2019-02-17T08:33:26.625Z,1.40
2019-02-17T08:35:54.722Z,1.10
2019-02-17T08:38:22.783Z,1.20
2019-02-17T08:40:53.677Z,1.30
2019-02-17T08:43:21.675Z,1.20
2019-02-17T08:45:49.587Z,1.20
2019-02-17T08:48:17.789Z,1.30
2019-02-17T08:50:45.787Z,1.50
2019-02-17T08:53:13.900Z,1.27
2019-02-17T08:55:41.909Z,1.13
2019-02-17T08:58:09.927Z,1.13
2019-02-17T09:00:37.896Z,1.60
2019-02-17T09:03:05.839Z,1.80
2019-02-17T09:05:43.892Z,1.00
2019-02-17T09:08:05.731Z,1.20
2019-02-17T09:10:35.450Z,1.43
2019-02-17T09:13:03.449Z,1.10
2019-02-17T09:15:31.385Z,1.47
2019-02-17T09:17:59.396Z,1.63
2019-02-17T09:20:27.397Z,1.20
2019-02-17T09:22:55.356Z,1.33
2019-02-17T09:25:23.301Z,1.20
2019-02-17T09:27:51.287Z,1.10
2019-02-17T09:30:19.284Z,1.33
2019-02-17T09:32:47.227Z,1.30
2019-02-17T09:35:17.603Z,1.10
2019-02-17T09:37:45.600Z,1.47
2019-02-17T09:40:13.720Z,1.30
2019-02-17T09:42:41.648Z,0.97
2019-02-17T09:45:10.391Z,1.10
2019-02-17T09:47:41.209Z,1.20
2019-02-17T09:50:10.074Z,1.40
2019-02-17T09:52:40.730Z,1.10
2019-02-17T09:55:08.719Z,1.30
2019-02-17T09:57:38.216Z,1.47
2019-02-17T10:00:06.191Z,1.20
2019-02-17T10:02:34.231Z,1.17
2019-02-17T10:05:02.212Z,1.43
2019-02-17T10:07:30.127Z,1.60
2019-02-17T10:09:58.060Z,1.50
2019-02-17T10:12:28.676Z,1.20
2019-02-17T10:14:56.763Z,1.23
2019-02-17T10:17:24.676Z,1.40
2019-02-17T10:19:53.731Z,1.20
2019-02-17T10:22:21.706Z,1.27
2019-02-17T10:24:49.710Z,1.30
2019-02-17T10:27:17.657Z,1.40
2019-02-17T10:29:45.584Z,1.37
2019-02-17T10:32:13.667Z,1.40
2019-02-17T10:34:41.582Z,1.50
2019-02-17T10:37:09.591Z,1.20
2019-02-17T10:39:37.608Z,1.50
2019-02-17T10:42:07.912Z,1.40
2019-02-17T10:44:35.830Z,1.20
2019-02-17T10:47:03.932Z,1.03
2019-02-17T10:49:31.948Z,1.43
2019-02-17T10:51:59.876Z,1.30
2019-02-17T10:54:27.994Z,1.33
2019-02-17T10:56:57.291Z,1.20
2019-02-17T10:59:25.199Z,1.27
2019-02-17T11:01:54.247Z,1.20
2019-02-17T11:04:22.354Z,1.40
2019-02-17T11:06:50.369Z,1.57
2019-02-17T11:09:21.792Z,1.60
2019-02-17T11:11:50.196Z,1.20
2019-02-17T11:14:18.199Z,1.50
2019-02-17T11:16:46.215Z,1.40
2019-02-17T11:19:14.211Z,1.77
2019-02-17T11:21:42.179Z,1.40
2019-02-17T11:24:10.110Z,1.30
2019-02-17T11:26:38.124Z,1.20
2019-02-17T11:29:06.158Z,1.40
2019-02-17T11:31:34.134Z,1.40
2019-02-17T11:34:02.078Z,1.30
2019-02-17T11:36:30.090Z,1.60
2019-02-17T11:38:58.123Z,2.20
2019-02-17T11:41:26.265Z,2.87
2019-02-17T11:43:54.252Z,2.83
2019-02-17T11:46:22.240Z,2.30
2019-02-17T11:48:50.280Z,1.60
2019-02-17T11:51:18.312Z,1.70
2019-02-17T11:53:46.271Z,1.90
2019-02-17T11:56:14.353Z,1.73
2019-02-17T11:58:42.321Z,1.70
2019-02-17T12:01:10.314Z,1.50
2019-02-17T12:03:38.316Z,1.60
2019-02-17T12:06:06.335Z,1.90
2019-02-17T12:08:34.288Z,2.03
2019-02-17T12:11:02.275Z,1.60
2019-02-17T12:13:30.246Z,1.80
2019-02-17T12:15:58.291Z,1.83
2019-02-17T12:18:26.396Z,2.10
2019-02-17T12:21:16.188Z,1.83
2019-02-17T12:24:06.179Z,2.37
2019-02-17T12:26:51.839Z,1.77
2019-02-17T12:29:27.635Z,1.97
2019-02-17T12:31:57.741Z,2.30
2019-02-17T12:34:25.228Z,2.27
2019-02-17T12:36:53.143Z,1.63
2019-02-17T12:39:21.160Z,1.90
2019-02-17T12:41:49.067Z,2.03
2019-02-17T12:44:17.014Z,1.63
2019-02-17T12:46:45.013Z,1.60
2019-02-17T12:49:12.956Z,1.80
2019-02-17T12:51:40.993Z,2.40
2019-02-17T12:54:08.961Z,2.27
2019-02-17T12:56:37.053Z,2.00
2019-02-17T12:59:05.025Z,1.70
2019-02-17T13:01:32.996Z,1.80
2019-02-17T13:04:00.939Z,1.77
2019-02-17T13:06:28.908Z,2.13
2019-02-17T13:08:56.933Z,1.90
2019-02-17T13:11:24.895Z,2.27
2019-02-17T13:13:53.822Z,2.33
2019-02-17T13:16:21.884Z,2.07
2019-02-17T13:18:49.797Z,1.70
2019-02-17T13:21:17.836Z,2.27
2019-02-17T13:23:45.737Z,1.87
2019-02-17T13:26:13.686Z,2.00
2019-02-17T13:28:41.706Z,2.20
2019-02-17T13:31:09.726Z,1.93
2019-02-17T13:33:39.467Z,2.03
2019-02-17T13:36:07.555Z,1.97
2019-02-17T13:38:35.522Z,2.07
2019-02-17T13:41:03.498Z,2.00
2019-02-17T13:43:31.491Z,2.23
2019-02-17T13:45:59.573Z,2.27
2019-02-17T13:48:27.676Z,2.40
2019-02-17T13:50:55.713Z,1.90
2019-02-17T13:53:23.760Z,2.30
2019-02-17T13:55:52.063Z,2.10
2019-02-17T13:58:20.040Z,1.57
2019-02-17T14:00:48.049Z,1.90
2019-02-17T14:03:16.127Z,2.57
2019-02-17T14:05:44.168Z,2.63
2019-02-17T14:08:12.203Z,1.90
2019-02-17T14:10:40.286Z,2.23
2019-02-17T14:13:08.303Z,2.27
2019-02-17T14:15:36.305Z,2.40
2019-02-17T14:18:04.330Z,2.20
2019-02-17T14:20:32.368Z,2.30
2019-02-17T14:23:00.363Z,2.30
2019-02-17T14:25:28.503Z,2.00
2019-02-17T14:27:56.475Z,1.90
2019-02-17T14:30:24.509Z,2.20
2019-02-17T14:32:52.450Z,2.00
2019-02-17T14:35:20.414Z,1.90
2019-02-17T14:37:49.636Z,2.20
2019-02-17T14:40:20.254Z,2.20
2019-02-17T14:42:48.260Z,1.90
2019-02-17T14:45:16.185Z,2.10
2019-02-17T14:47:44.247Z,1.97
2019-02-17T14:50:12.326Z,2.17
2019-02-17T14:52:40.288Z,2.77
2019-02-17T14:55:08.457Z,3.03
2019-02-17T14:57:36.444Z,6.77
2019-02-17T15:00:04.932Z,4.27
2019-02-17T15:02:32.928Z,3.70
2019-02-17T15:05:01.064Z,2.53
2019-02-17T15:07:29.061Z,3.17
2019-02-17T15:09:56.985Z,3.00
2019-02-17T15:12:24.880Z,3.30
2019-02-17T15:14:52.924Z,3.23
2019-02-17T15:17:20.929Z,2.80
2019-02-17T15:19:48.992Z,2.87
2019-02-17T15:22:16.998Z,2.70
2019-02-17T15:24:44.939Z,3.07
2019-02-17T15:27:13.019Z,3.00
2019-02-17T15:29:40.963Z,2.83
2019-02-17T15:32:09.015Z,2.30
2019-02-17T15:34:36.994Z,2.70
2019-02-17T15:37:05.006Z,2.90
2019-02-17T15:39:33.140Z,3.90
2019-02-17T15:42:01.103Z,2.90
2019-02-17T15:44:29.279Z,2.93
2019-02-17T15:46:57.316Z,3.70
2019-02-17T15:49:25.381Z,3.33
2019-02-17T15:51:53.375Z,2.90
2019-02-17T15:54:21.381Z,2.57
2019-02-17T15:56:49.444Z,2.23
2019-02-17T15:59:17.371Z,2.97
2019-02-17T16:01:45.360Z,2.40
2019-02-17T16:04:13.430Z,3.50
2019-02-17T16:06:41.432Z,3.40
2019-02-17T16:09:09.458Z,3.33
2019-02-17T16:11:37.456Z,5.73
2019-02-17T16:14:06.720Z,3.50
2019-02-17T16:16:34.759Z,3.37
2019-02-17T16:19:02.735Z,4.03
2019-02-17T16:21:30.772Z,3.50
2019-02-17T16:23:58.919Z,3.97
2019-02-17T16:26:26.904Z,3.90
2019-02-17T16:28:54.908Z,2.97
2019-02-17T16:31:22.887Z,2.87
2019-02-17T16:33:51.008Z,3.30
2019-02-17T16:36:19.089Z,3.57
2019-02-17T16:38:47.094Z,3.53
2019-02-17T16:41:15.064Z,3.47
2019-02-17T16:43:42.991Z,3.63
2019-02-17T16:46:10.998Z,3.37
2019-02-17T16:48:39.031Z,3.37
2019-02-17T16:51:07.096Z,3.17
2019-02-17T16:53:35.080Z,3.60
2019-02-17T16:56:03.054Z,3.60
2019-02-17T16:58:31.108Z,3.77
2019-02-17T17:00:59.181Z,3.50
2019-02-17T17:03:27.262Z,3.20
2019-02-17T17:05:55.298Z,4.33
2019-02-17T17:08:23.332Z,4.43
2019-02-17T17:10:51.315Z,5.00
2019-02-17T17:13:19.354Z,5.20
2019-02-17T17:15:47.340Z,4.70
2019-02-17T17:18:15.300Z,5.30
2019-02-17T17:20:43.306Z,5.50
2019-02-17T17:23:11.250Z,4.87
2019-02-17T17:25:39.269Z,4.60
2019-02-17T17:28:07.353Z,4.17
2019-02-17T17:30:35.376Z,11.40
2019-02-17T17:33:03.438Z,9.23
2019-02-17T17:35:31.464Z,6.10
2019-02-17T17:37:59.516Z,6.93
2019-02-17T17:40:27.550Z,6.03
2019-02-17T17:42:55.495Z,5.07
2019-02-17T17:45:23.454Z,6.03
2019-02-17T17:47:51.395Z,6.60
2019-02-17T17:50:19.440Z,5.97
2019-02-17T17:52:47.466Z,5.43
2019-02-17T17:55:15.463Z,16.53
2019-02-17T17:57:43.502Z,9.77
2019-02-17T18:00:14.165Z,8.77
2019-02-17T18:02:42.136Z,9.17
2019-02-17T18:05:10.215Z,12.30
2019-02-17T18:07:38.213Z,9.67
2019-02-17T18:10:06.649Z,11.93
2019-02-17T18:12:34.688Z,6.87
2019-02-17T18:15:02.683Z,5.97
2019-02-17T18:17:30.724Z,5.97
2019-02-17T18:19:58.844Z,6.27
2019-02-17T18:22:26.875Z,6.90
2019-02-17T18:24:54.944Z,6.60
2019-02-17T18:27:22.927Z,6.10
2019-02-17T18:29:51.096Z,7.30
2019-02-17T18:32:19.088Z,6.60
2019-02-17T18:34:47.120Z,6.57
2019-02-17T18:37:15.266Z,6.57
2019-02-17T18:39:43.256Z,6.97
2019-02-17T18:42:11.275Z,6.67
2019-02-17T18:44:39.297Z,5.67
2019-02-17T18:47:07.243Z,6.00
2019-02-17T18:49:35.254Z,6.93
2019-02-17T18:52:03.258Z,6.83
2019-02-17T18:54:31.277Z,5.90
2019-02-17T18:57:07.959Z,5.80
2019-02-17T18:59:29.233Z,6.63
2019-02-17T19:01:57.160Z,6.73
2019-02-17T19:04:25.115Z,6.60
2019-02-17T19:06:53.111Z,6.47
2019-02-17T19:09:21.193Z,6.53
2019-02-17T19:11:49.217Z,6.20
2019-02-17T19:14:17.150Z,6.60
2019-02-17T19:16:45.168Z,5.57
2019-02-17T19:19:13.177Z,5.67
2019-02-17T19:21:41.211Z,4.70
2019-02-17T19:24:09.229Z,4.27
2019-02-17T19:26:37.169Z,3.70
2019-02-17T19:29:05.148Z,4.03
2019-02-17T19:31:33.115Z,3.97
2019-02-17T19:34:01.139Z,4.33
2019-02-17T19:36:29.285Z,7.80
2019-02-17T19:38:57.410Z,5.93
2019-02-17T19:41:25.461Z,4.20
2019-02-17T19:43:53.481Z,4.70
2019-02-17T19:46:21.511Z,3.90
2019-02-17T19:48:49.504Z,3.67
2019-02-17T19:51:17.480Z,3.93
2019-02-17T19:53:45.554Z,3.67
2019-02-17T19:56:13.587Z,4.00
2019-02-17T19:58:41.637Z,3.80
2019-02-17T20:01:09.662Z,3.63
2019-02-17T20:03:46.723Z,3.17
2019-02-17T20:06:16.651Z,3.70
2019-02-17T20:08:44.662Z,6.60
2019-02-17T20:11:12.758Z,5.23
2019-02-17T20:13:40.982Z,4.80
2019-02-17T20:16:08.982Z,4.33
2019-02-17T20:18:37.011Z,5.03
2019-02-17T20:21:05.122Z,4.87
2019-02-17T20:23:33.355Z,4.63
2019-02-17T20:26:01.389Z,3.90
2019-02-17T20:28:42.515Z,3.50
2019-02-17T20:30:59.277Z,3.80
2019-02-17T20:33:27.585Z,3.57
2019-02-17T20:36:02.657Z,4.03
2019-02-17T20:38:28.119Z,3.90
2019-02-17T20:40:56.172Z,4.40
2019-02-17T20:43:24.257Z,5.37
2019-02-17T20:45:52.336Z,4.63
2019-02-17T20:48:20.418Z,5.97
2019-02-17T20:50:48.392Z,5.20
2019-02-17T20:53:16.447Z,4.60
2019-02-17T20:55:44.529Z,4.40
2019-02-17T20:58:12.734Z,4.17
2019-02-17T21:00:40.752Z,4.10
2019-02-17T21:03:08.710Z,3.73
2019-02-17T21:05:36.772Z,3.80
2019-02-17T21:08:04.784Z,4.20
2019-02-17T21:10:32.823Z,3.97
2019-02-17T21:13:00.825Z,4.00
2019-02-17T21:15:28.923Z,3.50
2019-02-17T21:17:57.000Z,4.33
2019-02-17T21:20:25.411Z,5.97
2019-02-17T21:22:53.383Z,6.57
2019-02-17T21:25:21.496Z,4.40
2019-02-17T21:27:49.491Z,3.87
2019-02-17T21:30:17.524Z,3.87
2019-02-17T21:32:45.598Z,3.47
2019-02-17T21:35:13.521Z,3.70
2019-02-17T21:37:41.555Z,3.20
2019-02-17T21:40:11.299Z,3.33
2019-02-17T21:42:39.317Z,3.37
2019-02-17T21:45:08.196Z,3.37
2019-02-17T21:47:36.291Z,2.70
2019-02-17T21:50:04.520Z,3.17
2019-02-17T21:52:33.754Z,3.40
2019-02-17T21:55:01.907Z,3.63
2019-02-17T21:57:29.943Z,4.10
2019-02-17T21:59:58.024Z,3.27
2019-02-17T22:02:25.981Z,2.90
2019-02-17T22:04:55.000Z,2.90
2019-02-17T22:07:23.050Z,2.43
2019-02-17T22:09:51.060Z,2.80
2019-02-17T22:12:19.132Z,2.17
2019-02-17T22:14:47.052Z,2.50
2019-02-17T22:17:15.035Z,2.20
2019-02-17T22:19:42.979Z,2.67
2019-02-17T22:22:10.965Z,3.03
2019-02-17T22:24:38.963Z,2.27
2019-02-17T22:27:06.895Z,2.00
2019-02-17T22:29:34.782Z,1.70
2019-02-17T22:32:02.763Z,1.70
2019-02-17T22:34:30.659Z,1.70
2019-02-17T22:36:58.776Z,1.40
2019-02-17T22:39:26.702Z,1.90
2019-02-17T22:41:54.689Z,1.60
2019-02-17T22:44:22.692Z,1.60
2019-02-17T22:46:50.621Z,1.70
2019-02-17T22:49:18.619Z,1.40
2019-02-17T22:51:46.564Z,2.10
2019-02-17T22:54:14.618Z,1.60
2019-02-17T22:56:42.612Z,1.90
2019-02-17T22:59:10.664Z,1.73
2019-02-17T23:01:38.643Z,1.73
2019-02-17T23:04:06.593Z,2.00
2019-02-17T23:06:34.529Z,1.83
2019-02-17T23:09:03.161Z,1.60
2019-02-17T23:11:31.279Z,1.43
2019-02-17T23:13:59.305Z,2.00
2019-02-17T23:16:27.256Z,1.73
2019-02-17T23:18:55.226Z,2.10
2019-02-17T23:21:23.200Z,1.90
2019-02-17T23:23:51.134Z,1.70
2019-02-17T23:26:19.179Z,1.70
2019-02-17T23:28:47.175Z,2.10
2019-02-17T23:31:15.183Z,1.93
2019-02-17T23:33:43.200Z,1.30
2019-02-17T23:36:11.115Z,1.40
2019-02-17T23:38:39.128Z,1.33
2019-02-17T23:41:07.080Z,1.60
2019-02-17T23:43:35.039Z,1.40
2019-02-17T23:46:03.193Z,1.53
2019-02-17T23:48:31.147Z,1.60
2019-02-17T23:50:59.102Z,1.60
2019-02-17T23:53:27.159Z,1.30
2019-02-17T23:55:55.169Z,1.50
2019-02-17T23:58:23.212Z,1.37
